sensor_id;sensor_type;location;lat;lon;timestamp;P1;durP1;ratioP1;P2;durP2;ratioP2
4634;SDS011;2330;48.158;11.816;2024-01-30T00:00:19;5.80;;;5.30;;
4634;SDS011;2330;48.158;11.816;2024-01-30T00:02:47;6.03;;;5.38;;
4634;SDS011;2330;48.158;11.816;2024-01-30T00:05:14;6.57;;;5.20;;
4634;SDS011;2330;48.158;11.816;2024-01-30T00:07:41;5.72;;;5.13;;
4634;SDS011;2330;48.158;11.816;2024-01-30T00:10:07;5.25;;;4.85;;
4634;SDS011;2330;48.158;11.816;2024-01-30T00:12:34;5.47;;;4.97;;
4634;SDS011;2330;48.158;11.816;2024-01-30T00:15:01;5.50;;;5.10;;
4634;SDS011;2330;48.158;11.816;2024-01-30T00:17:30;7.30;;;5.10;;
4634;SDS011;2330;48.158;11.816;2024-01-30T00:19:57;5.22;;;4.68;;
4634;SDS011;2330;48.158;11.816;2024-01-30T00:22:24;5.43;;;5.00;;
4634;SDS011;2330;48.158;11.816;2024-01-30T00:24:51;6.05;;;5.45;;
4634;SDS011;2330;48.158;11.816;2024-01-30T00:27:18;5.97;;;5.35;;
4634;SDS011;2330;48.158;11.816;2024-01-30T00:29:44;4.85;;;4.45;;
4634;SDS011;2330;48.158;11.816;2024-01-30T00:32:11;4.70;;;4.30;;
4634;SDS011;2330;48.158;11.816;2024-01-30T00:34:38;5.32;;;4.85;;
4634;SDS011;2330;48.158;11.816;2024-01-30T00:37:05;4.95;;;4.60;;
4634;SDS011;2330;48.158;11.816;2024-01-30T00:39:32;5.05;;;4.65;;
4634;SDS011;2330;48.158;11.816;2024-01-30T00:41:59;4.95;;;4.55;;
4634;SDS011;2330;48.158;11.816;2024-01-30T00:44:25;5.35;;;4.85;;
4634;SDS011;2330;48.158;11.816;2024-01-30T00:46:52;5.63;;;5.22;;
4634;SDS011;2330;48.158;11.816;2024-01-30T00:49:19;5.82;;;4.97;;
4634;SDS011;2330;48.158;11.816;2024-01-30T00:51:46;5.60;;;5.10;;
4634;SDS011;2330;48.158;11.816;2024-01-30T00:54:13;4.57;;;4.28;;
4634;SDS011;2330;48.158;11.816;2024-01-30T00:56:40;4.70;;;4.30;;
4634;SDS011;2330;48.158;11.816;2024-01-30T00:59:07;5.60;;;5.00;;
4634;SDS011;2330;48.158;11.816;2024-01-30T01:01:33;6.15;;;5.50;;
4634;SDS011;2330;48.158;11.816;2024-01-30T01:04:00;5.28;;;4.78;;
4634;SDS011;2330;48.158;11.816;2024-01-30T01:06:27;6.25;;;5.65;;
4634;SDS011;2330;48.158;11.816;2024-01-30T01:08:54;5.10;;;4.60;;
4634;SDS011;2330;48.158;11.816;2024-01-30T01:11:21;7.80;;;4.70;;
4634;SDS011;2330;48.158;11.816;2024-01-30T01:13:48;9.57;;;5.47;;
4634;SDS011;2330;48.158;11.816;2024-01-30T01:16:15;5.53;;;5.03;;
4634;SDS011;2330;48.158;11.816;2024-01-30T01:18:41;5.20;;;4.70;;
4634;SDS011;2330;48.158;11.816;2024-01-30T01:21:08;5.85;;;5.30;;
4634;SDS011;2330;48.158;11.816;2024-01-30T01:23:35;4.97;;;4.57;;
4634;SDS011;2330;48.158;11.816;2024-01-30T01:26:02;4.72;;;4.32;;
4634;SDS011;2330;48.158;11.816;2024-01-30T01:28:29;5.88;;;5.20;;
4634;SDS011;2330;48.158;11.816;2024-01-30T01:30:55;5.50;;;5.00;;
4634;SDS011;2330;48.158;11.816;2024-01-30T01:33:25;5.32;;;4.82;;
4634;SDS011;2330;48.158;11.816;2024-01-30T01:35:52;7.13;;;5.35;;
4634;SDS011;2330;48.158;11.816;2024-01-30T01:38:19;5.95;;;5.45;;
4634;SDS011;2330;48.158;11.816;2024-01-30T01:40:46;5.05;;;4.65;;
4634;SDS011;2330;48.158;11.816;2024-01-30T01:43:13;4.75;;;4.35;;
4634;SDS011;2330;48.158;11.816;2024-01-30T01:45:39;5.68;;;4.90;;
4634;SDS011;2330;48.158;11.816;2024-01-30T01:48:06;8.27;;;5.30;;
4634;SDS011;2330;48.158;11.816;2024-01-30T01:50:34;4.80;;;4.40;;
4634;SDS011;2330;48.158;11.816;2024-01-30T01:53:03;5.25;;;4.75;;
4634;SDS011;2330;48.158;11.816;2024-01-30T01:55:31;5.28;;;4.78;;
4634;SDS011;2330;48.158;11.816;2024-01-30T01:57:58;5.28;;;4.43;;
4634;SDS011;2330;48.158;11.816;2024-01-30T02:00:25;5.78;;;5.28;;
4634;SDS011;2330;48.158;11.816;2024-01-30T02:02:53;5.30;;;4.90;;
4634;SDS011;2330;48.158;11.816;2024-01-30T02:05:21;6.10;;;4.65;;
4634;SDS011;2330;48.158;11.816;2024-01-30T02:07:48;5.10;;;4.78;;
4634;SDS011;2330;48.158;11.816;2024-01-30T02:10:16;5.00;;;4.55;;
4634;SDS011;2330;48.158;11.816;2024-01-30T02:12:43;4.80;;;4.50;;
4634;SDS011;2330;48.158;11.816;2024-01-30T02:15:13;4.68;;;4.32;;
4634;SDS011;2330;48.158;11.816;2024-01-30T02:17:39;5.28;;;4.78;;
4634;SDS011;2330;48.158;11.816;2024-01-30T02:20:06;4.65;;;4.35;;
4634;SDS011;2330;48.158;11.816;2024-01-30T02:22:34;4.53;;;4.15;;
4634;SDS011;2330;48.158;11.816;2024-01-30T02:25:03;4.97;;;4.50;;
4634;SDS011;2330;48.158;11.816;2024-01-30T02:27:30;4.60;;;4.20;;
4634;SDS011;2330;48.158;11.816;2024-01-30T02:29:57;3.90;;;3.60;;
4634;SDS011;2330;48.158;11.816;2024-01-30T02:32:24;4.25;;;3.85;;
4634;SDS011;2330;48.158;11.816;2024-01-30T02:34:51;4.47;;;4.18;;
4634;SDS011;2330;48.158;11.816;2024-01-30T02:37:17;4.45;;;4.15;;
4634;SDS011;2330;48.158;11.816;2024-01-30T02:39:44;3.95;;;3.65;;
4634;SDS011;2330;48.158;11.816;2024-01-30T02:42:11;4.65;;;4.25;;
4634;SDS011;2330;48.158;11.816;2024-01-30T02:44:38;4.50;;;4.10;;
4634;SDS011;2330;48.158;11.816;2024-01-30T02:47:05;4.07;;;3.78;;
4634;SDS011;2330;48.158;11.816;2024-01-30T02:49:31;4.35;;;4.03;;
4634;SDS011;2330;48.158;11.816;2024-01-30T02:51:59;4.07;;;3.78;;
4634;SDS011;2330;48.158;11.816;2024-01-30T02:54:26;3.92;;;3.63;;
4634;SDS011;2330;48.158;11.816;2024-01-30T02:56:52;4.93;;;4.53;;
4634;SDS011;2330;48.158;11.816;2024-01-30T02:59:19;4.85;;;4.45;;
4634;SDS011;2330;48.158;11.816;2024-01-30T03:01:46;4.85;;;4.45;;
4634;SDS011;2330;48.158;11.816;2024-01-30T03:04:14;5.10;;;4.20;;
4634;SDS011;2330;48.158;11.816;2024-01-30T03:06:44;4.72;;;4.40;;
4634;SDS011;2330;48.158;11.816;2024-01-30T03:09:15;4.50;;;4.10;;
4634;SDS011;2330;48.158;11.816;2024-01-30T03:11:44;4.10;;;3.80;;
4634;SDS011;2330;48.158;11.816;2024-01-30T03:14:11;8.57;;;4.45;;
4634;SDS011;2330;48.158;11.816;2024-01-30T03:16:38;4.20;;;3.90;;
4634;SDS011;2330;48.158;11.816;2024-01-30T03:19:06;4.53;;;3.88;;
4634;SDS011;2330;48.158;11.816;2024-01-30T03:21:36;4.30;;;4.00;;
4634;SDS011;2330;48.158;11.816;2024-01-30T03:24:03;3.95;;;3.72;;
4634;SDS011;2330;48.158;11.816;2024-01-30T03:26:30;4.43;;;4.13;;
4634;SDS011;2330;48.158;11.816;2024-01-30T03:28:57;4.13;;;3.83;;
4634;SDS011;2330;48.158;11.816;2024-01-30T03:31:23;4.28;;;3.97;;
4634;SDS011;2330;48.158;11.816;2024-01-30T03:33:51;4.32;;;4.03;;
4634;SDS011;2330;48.158;11.816;2024-01-30T03:36:17;4.10;;;3.80;;
4634;SDS011;2330;48.158;11.816;2024-01-30T03:38:44;4.50;;;4.20;;
4634;SDS011;2330;48.158;11.816;2024-01-30T03:41:11;4.28;;;3.88;;
4634;SDS011;2330;48.158;11.816;2024-01-30T03:43:38;4.50;;;4.20;;
4634;SDS011;2330;48.158;11.816;2024-01-30T03:46:04;5.43;;;3.97;;
4634;SDS011;2330;48.158;11.816;2024-01-30T03:48:31;4.07;;;3.78;;
4634;SDS011;2330;48.158;11.816;2024-01-30T03:50:58;4.80;;;4.43;;
4634;SDS011;2330;48.158;11.816;2024-01-30T03:53:25;3.95;;;3.75;;
4634;SDS011;2330;48.158;11.816;2024-01-30T03:55:52;4.20;;;3.80;;
4634;SDS011;2330;48.158;11.816;2024-01-30T03:58:18;4.75;;;4.35;;
4634;SDS011;2330;48.158;11.816;2024-01-30T04:00:45;4.22;;;3.83;;
4634;SDS011;2330;48.158;11.816;2024-01-30T04:03:12;4.00;;;3.70;;
4634;SDS011;2330;48.158;11.816;2024-01-30T04:05:41;3.80;;;3.50;;
4634;SDS011;2330;48.158;11.816;2024-01-30T04:08:09;3.85;;;3.45;;
4634;SDS011;2330;48.158;11.816;2024-01-30T04:10:35;3.10;;;2.90;;
4634;SDS011;2330;48.158;11.816;2024-01-30T04:13:02;3.88;;;3.58;;
4634;SDS011;2330;48.158;11.816;2024-01-30T04:15:29;2.85;;;2.75;;
4634;SDS011;2330;48.158;11.816;2024-01-30T04:17:59;5.75;;;3.25;;
4634;SDS011;2330;48.158;11.816;2024-01-30T04:20:26;3.20;;;3.00;;
4634;SDS011;2330;48.158;11.816;2024-01-30T04:22:53;3.90;;;3.60;;
4634;SDS011;2330;48.158;11.816;2024-01-30T04:25:20;3.35;;;3.05;;
4634;SDS011;2330;48.158;11.816;2024-01-30T04:27:47;3.10;;;2.88;;
4634;SDS011;2330;48.158;11.816;2024-01-30T04:30:14;2.95;;;2.75;;
4634;SDS011;2330;48.158;11.816;2024-01-30T04:32:40;3.05;;;2.78;;
4634;SDS011;2330;48.158;11.816;2024-01-30T04:35:07;3.50;;;3.20;;
4634;SDS011;2330;48.158;11.816;2024-01-30T04:37:37;3.20;;;2.80;;
4634;SDS011;2330;48.158;11.816;2024-01-30T04:40:04;3.00;;;2.70;;
4634;SDS011;2330;48.158;11.816;2024-01-30T04:42:32;2.50;;;2.40;;
4634;SDS011;2330;48.158;11.816;2024-01-30T04:44:59;2.92;;;2.72;;
4634;SDS011;2330;48.158;11.816;2024-01-30T04:47:25;3.05;;;2.80;;
4634;SDS011;2330;48.158;11.816;2024-01-30T04:49:52;2.63;;;2.47;;
4634;SDS011;2330;48.158;11.816;2024-01-30T04:52:19;3.00;;;2.80;;
4634;SDS011;2330;48.158;11.816;2024-01-30T04:54:47;3.53;;;2.90;;
4634;SDS011;2330;48.158;11.816;2024-01-30T04:57:13;3.08;;;2.88;;
4634;SDS011;2330;48.158;11.816;2024-01-30T04:59:40;2.35;;;2.20;;
4634;SDS011;2330;48.158;11.816;2024-01-30T05:02:07;2.60;;;2.40;;
4634;SDS011;2330;48.158;11.816;2024-01-30T05:04:34;2.28;;;2.17;;
4634;SDS011;2330;48.158;11.816;2024-01-30T05:07:01;2.70;;;2.50;;
4634;SDS011;2330;48.158;11.816;2024-01-30T05:09:28;5.25;;;3.25;;
4634;SDS011;2330;48.158;11.816;2024-01-30T05:11:55;3.15;;;2.85;;
4634;SDS011;2330;48.158;11.816;2024-01-30T05:14:22;2.13;;;2.03;;
4634;SDS011;2330;48.158;11.816;2024-01-30T05:16:48;2.70;;;2.50;;
4634;SDS011;2330;48.158;11.816;2024-01-30T05:19:15;2.35;;;2.25;;
4634;SDS011;2330;48.158;11.816;2024-01-30T05:21:43;2.30;;;2.20;;
4634;SDS011;2330;48.158;11.816;2024-01-30T05:24:11;2.28;;;2.08;;
4634;SDS011;2330;48.158;11.816;2024-01-30T05:26:37;2.40;;;2.20;;
4634;SDS011;2330;48.158;11.816;2024-01-30T05:29:05;2.53;;;2.20;;
4634;SDS011;2330;48.158;11.816;2024-01-30T05:31:32;2.10;;;2.00;;
4634;SDS011;2330;48.158;11.816;2024-01-30T05:34:00;2.55;;;2.33;;
4634;SDS011;2330;48.158;11.816;2024-01-30T05:36:28;1.90;;;1.80;;
4634;SDS011;2330;48.158;11.816;2024-01-30T05:38:55;2.13;;;1.92;;
4634;SDS011;2330;48.158;11.816;2024-01-30T05:41:22;2.72;;;2.53;;
4634;SDS011;2330;48.158;11.816;2024-01-30T05:43:49;2.10;;;2.00;;
4634;SDS011;2330;48.158;11.816;2024-01-30T05:46:15;2.20;;;2.10;;
4634;SDS011;2330;48.158;11.816;2024-01-30T05:48:42;2.42;;;2.28;;
4634;SDS011;2330;48.158;11.816;2024-01-30T05:51:09;2.05;;;1.90;;
4634;SDS011;2330;48.158;11.816;2024-01-30T05:53:36;2.20;;;2.10;;
4634;SDS011;2330;48.158;11.816;2024-01-30T05:56:04;2.10;;;2.00;;
4634;SDS011;2330;48.158;11.816;2024-01-30T05:58:31;2.58;;;2.38;;
4634;SDS011;2330;48.158;11.816;2024-01-30T06:00:58;2.22;;;2.13;;
4634;SDS011;2330;48.158;11.816;2024-01-30T06:03:25;3.00;;;2.80;;
4634;SDS011;2330;48.158;11.816;2024-01-30T06:05:51;2.58;;;2.22;;
4634;SDS011;2330;48.158;11.816;2024-01-30T06:08:18;3.40;;;3.10;;
4634;SDS011;2330;48.158;11.816;2024-01-30T06:10:45;2.42;;;2.33;;
4634;SDS011;2330;48.158;11.816;2024-01-30T06:13:14;2.47;;;2.30;;
4634;SDS011;2330;48.158;11.816;2024-01-30T06:15:41;2.80;;;2.58;;
4634;SDS011;2330;48.158;11.816;2024-01-30T06:18:08;5.05;;;2.45;;
4634;SDS011;2330;48.158;11.816;2024-01-30T06:20:35;3.45;;;2.70;;
4634;SDS011;2330;48.158;11.816;2024-01-30T06:23:02;2.53;;;2.42;;
4634;SDS011;2330;48.158;11.816;2024-01-30T06:25:29;2.50;;;2.40;;
4634;SDS011;2330;48.158;11.816;2024-01-30T06:27:55;3.00;;;2.80;;
4634;SDS011;2330;48.158;11.816;2024-01-30T06:30:22;2.80;;;2.60;;
4634;SDS011;2330;48.158;11.816;2024-01-30T06:32:49;2.17;;;2.08;;
4634;SDS011;2330;48.158;11.816;2024-01-30T06:35:16;2.38;;;2.28;;
4634;SDS011;2330;48.158;11.816;2024-01-30T06:37:44;3.40;;;2.63;;
4634;SDS011;2330;48.158;11.816;2024-01-30T06:40:11;3.17;;;2.88;;
4634;SDS011;2330;48.158;11.816;2024-01-30T06:42:39;2.92;;;2.67;;
4634;SDS011;2330;48.158;11.816;2024-01-30T06:45:06;2.80;;;2.60;;
4634;SDS011;2330;48.158;11.816;2024-01-30T06:47:34;2.42;;;2.33;;
4634;SDS011;2330;48.158;11.816;2024-01-30T06:50:01;3.60;;;2.53;;
4634;SDS011;2330;48.158;11.816;2024-01-30T06:52:28;3.42;;;3.08;;
4634;SDS011;2330;48.158;11.816;2024-01-30T06:54:55;4.60;;;2.50;;
4634;SDS011;2330;48.158;11.816;2024-01-30T06:57:22;3.40;;;3.10;;
4634;SDS011;2330;48.158;11.816;2024-01-30T06:59:49;6.18;;;2.30;;
4634;SDS011;2330;48.158;11.816;2024-01-30T07:02:16;2.83;;;2.55;;
4634;SDS011;2330;48.158;11.816;2024-01-30T07:04:43;3.20;;;2.85;;
4634;SDS011;2330;48.158;11.816;2024-01-30T07:07:12;2.42;;;2.28;;
4634;SDS011;2330;48.158;11.816;2024-01-30T07:09:41;3.53;;;2.83;;
4634;SDS011;2330;48.158;11.816;2024-01-30T07:12:08;3.00;;;2.78;;
4634;SDS011;2330;48.158;11.816;2024-01-30T07:14:35;2.97;;;2.78;;
4634;SDS011;2330;48.158;11.816;2024-01-30T07:17:02;3.85;;;2.60;;
4634;SDS011;2330;48.158;11.816;2024-01-30T07:19:29;3.33;;;3.05;;
4634;SDS011;2330;48.158;11.816;2024-01-30T07:21:56;2.45;;;2.25;;
4634;SDS011;2330;48.158;11.816;2024-01-30T07:24:23;3.22;;;2.25;;
4634;SDS011;2330;48.158;11.816;2024-01-30T07:26:50;2.58;;;2.42;;
4634;SDS011;2330;48.158;11.816;2024-01-30T07:29:17;2.33;;;2.13;;
4634;SDS011;2330;48.158;11.816;2024-01-30T07:31:44;2.33;;;2.13;;
4634;SDS011;2330;48.158;11.816;2024-01-30T07:34:11;2.60;;;2.40;;
4634;SDS011;2330;48.158;11.816;2024-01-30T07:36:38;2.50;;;2.40;;
4634;SDS011;2330;48.158;11.816;2024-01-30T07:39:05;2.88;;;2.60;;
4634;SDS011;2330;48.158;11.816;2024-01-30T07:41:32;2.72;;;2.63;;
4634;SDS011;2330;48.158;11.816;2024-01-30T07:44:00;2.50;;;2.40;;
4634;SDS011;2330;48.158;11.816;2024-01-30T07:46:26;2.92;;;2.70;;
4634;SDS011;2330;48.158;11.816;2024-01-30T07:48:53;2.90;;;2.70;;
4634;SDS011;2330;48.158;11.816;2024-01-30T07:51:22;2.75;;;2.50;;
4634;SDS011;2330;48.158;11.816;2024-01-30T07:53:49;2.92;;;2.70;;
4634;SDS011;2330;48.158;11.816;2024-01-30T07:56:16;3.35;;;3.05;;
4634;SDS011;2330;48.158;11.816;2024-01-30T07:58:43;3.28;;;3.08;;
4634;SDS011;2330;48.158;11.816;2024-01-30T08:01:10;3.13;;;2.90;;
4634;SDS011;2330;48.158;11.816;2024-01-30T08:03:38;3.20;;;2.95;;
4634;SDS011;2330;48.158;11.816;2024-01-30T08:06:07;3.78;;;3.47;;
4634;SDS011;2330;48.158;11.816;2024-01-30T08:08:34;3.05;;;2.85;;
4634;SDS011;2330;48.158;11.816;2024-01-30T08:11:01;5.95;;;2.60;;
4634;SDS011;2330;48.158;11.816;2024-01-30T08:13:28;3.25;;;2.95;;
4634;SDS011;2330;48.158;11.816;2024-01-30T08:15:55;3.00;;;2.70;;
4634;SDS011;2330;48.158;11.816;2024-01-30T08:18:21;3.92;;;2.92;;
4634;SDS011;2330;48.158;11.816;2024-01-30T08:20:48;3.13;;;2.90;;
4634;SDS011;2330;48.158;11.816;2024-01-30T08:23:15;3.60;;;3.30;;
4634;SDS011;2330;48.158;11.816;2024-01-30T08:25:42;4.00;;;2.95;;
4634;SDS011;2330;48.158;11.816;2024-01-30T08:28:09;3.65;;;3.03;;
4634;SDS011;2330;48.158;11.816;2024-01-30T08:30:36;5.03;;;2.80;;
4634;SDS011;2330;48.158;11.816;2024-01-30T08:33:05;4.00;;;3.60;;
4634;SDS011;2330;48.158;11.816;2024-01-30T08:35:32;5.88;;;4.15;;
4634;SDS011;2330;48.158;11.816;2024-01-30T08:38:00;3.88;;;3.58;;
4634;SDS011;2330;48.158;11.816;2024-01-30T08:40:27;4.90;;;4.35;;
4634;SDS011;2330;48.158;11.816;2024-01-30T08:42:55;3.67;;;3.38;;
4634;SDS011;2330;48.158;11.816;2024-01-30T08:45:22;3.55;;;3.25;;
4634;SDS011;2330;48.158;11.816;2024-01-30T08:47:49;5.00;;;3.50;;
4634;SDS011;2330;48.158;11.816;2024-01-30T08:50:16;4.05;;;3.22;;
4634;SDS011;2330;48.158;11.816;2024-01-30T08:52:43;3.00;;;2.80;;
4634;SDS011;2330;48.158;11.816;2024-01-30T08:55:12;2.87;;;2.67;;
4634;SDS011;2330;48.158;11.816;2024-01-30T08:57:39;3.17;;;2.70;;
4634;SDS011;2330;48.158;11.816;2024-01-30T09:00:06;3.80;;;2.77;;
4634;SDS011;2330;48.158;11.816;2024-01-30T09:02:35;4.07;;;3.60;;
4634;SDS011;2330;48.158;11.816;2024-01-30T09:05:02;4.17;;;2.80;;
4634;SDS011;2330;48.158;11.816;2024-01-30T09:07:30;2.80;;;2.60;;
4634;SDS011;2330;48.158;11.816;2024-01-30T09:09:56;3.30;;;3.00;;
4634;SDS011;2330;48.158;11.816;2024-01-30T09:12:24;3.83;;;2.67;;
4634;SDS011;2330;48.158;11.816;2024-01-30T09:14:51;3.37;;;2.90;;
4634;SDS011;2330;48.158;11.816;2024-01-30T09:17:17;2.67;;;2.47;;
4634;SDS011;2330;48.158;11.816;2024-01-30T09:19:45;3.03;;;2.57;;
4634;SDS011;2330;48.158;11.816;2024-01-30T09:22:13;3.03;;;2.13;;
4634;SDS011;2330;48.158;11.816;2024-01-30T09:24:40;2.73;;;2.50;;
4634;SDS011;2330;48.158;11.816;2024-01-30T09:27:07;3.27;;;1.80;;
4634;SDS011;2330;48.158;11.816;2024-01-30T09:29:34;1.97;;;1.73;;
4634;SDS011;2330;48.158;11.816;2024-01-30T09:32:03;3.50;;;1.80;;
4634;SDS011;2330;48.158;11.816;2024-01-30T09:34:32;2.10;;;2.00;;
4634;SDS011;2330;48.158;11.816;2024-01-30T09:36:59;4.93;;;1.77;;
4634;SDS011;2330;48.158;11.816;2024-01-30T09:39:27;2.73;;;2.53;;
4634;SDS011;2330;48.158;11.816;2024-01-30T09:42:12;2.87;;;2.57;;
4634;SDS011;2330;48.158;11.816;2024-01-30T09:44:43;2.50;;;2.30;;
4634;SDS011;2330;48.158;11.816;2024-01-30T09:47:10;1.90;;;1.70;;
4634;SDS011;2330;48.158;11.816;2024-01-30T09:49:38;2.17;;;1.60;;
4634;SDS011;2330;48.158;11.816;2024-01-30T09:52:05;6.80;;;2.07;;
4634;SDS011;2330;48.158;11.816;2024-01-30T09:54:34;3.03;;;1.87;;
4634;SDS011;2330;48.158;11.816;2024-01-30T09:57:02;3.67;;;2.00;;
4634;SDS011;2330;48.158;11.816;2024-01-30T09:59:30;3.13;;;2.50;;
4634;SDS011;2330;48.158;11.816;2024-01-30T10:01:57;2.70;;;2.20;;
4634;SDS011;2330;48.158;11.816;2024-01-30T10:04:24;2.33;;;2.13;;
4634;SDS011;2330;48.158;11.816;2024-01-30T10:06:51;4.30;;;1.87;;
4634;SDS011;2330;48.158;11.816;2024-01-30T10:09:18;6.63;;;1.80;;
4634;SDS011;2330;48.158;11.816;2024-01-30T10:11:45;7.63;;;2.27;;
4634;SDS011;2330;48.158;11.816;2024-01-30T10:14:12;3.60;;;2.20;;
4634;SDS011;2330;48.158;11.816;2024-01-30T10:16:39;2.87;;;1.80;;
4634;SDS011;2330;48.158;11.816;2024-01-30T10:19:06;2.90;;;2.00;;
4634;SDS011;2330;48.158;11.816;2024-01-30T10:21:33;2.10;;;1.80;;
4634;SDS011;2330;48.158;11.816;2024-01-30T10:24:00;6.53;;;1.80;;
4634;SDS011;2330;48.158;11.816;2024-01-30T10:26:27;4.00;;;1.70;;
4634;SDS011;2330;48.158;11.816;2024-01-30T10:28:55;2.80;;;1.90;;
4634;SDS011;2330;48.158;11.816;2024-01-30T10:31:22;7.37;;;1.60;;
4634;SDS011;2330;48.158;11.816;2024-01-30T10:33:50;4.80;;;1.70;;
4634;SDS011;2330;48.158;11.816;2024-01-30T10:36:24;5.00;;;1.63;;
4634;SDS011;2330;48.158;11.816;2024-01-30T10:38:55;7.27;;;1.80;;
4634;SDS011;2330;48.158;11.816;2024-01-30T10:41:26;3.57;;;2.23;;
4634;SDS011;2330;48.158;11.816;2024-01-30T10:43:57;8.33;;;1.80;;
4634;SDS011;2330;48.158;11.816;2024-01-30T10:46:30;5.00;;;1.70;;
4634;SDS011;2330;48.158;11.816;2024-01-30T10:48:58;3.60;;;1.70;;
4634;SDS011;2330;48.158;11.816;2024-01-30T10:51:27;6.43;;;2.07;;
4634;SDS011;2330;48.158;11.816;2024-01-30T10:53:55;4.17;;;1.80;;
4634;SDS011;2330;48.158;11.816;2024-01-30T10:56:24;4.43;;;2.10;;
4634;SDS011;2330;48.158;11.816;2024-01-30T10:58:52;3.17;;;1.83;;
4634;SDS011;2330;48.158;11.816;2024-01-30T11:01:22;6.53;;;1.73;;
4634;SDS011;2330;48.158;11.816;2024-01-30T11:03:51;2.00;;;1.80;;
4634;SDS011;2330;48.158;11.816;2024-01-30T11:06:25;2.70;;;1.60;;
4634;SDS011;2330;48.158;11.816;2024-01-30T11:09:02;2.30;;;1.87;;
4634;SDS011;2330;48.158;11.816;2024-01-30T11:11:49;2.50;;;1.60;;
4634;SDS011;2330;48.158;11.816;2024-01-30T11:14:22;9.33;;;2.10;;
4634;SDS011;2330;48.158;11.816;2024-01-30T11:16:50;3.73;;;1.67;;
4634;SDS011;2330;48.158;11.816;2024-01-30T11:19:23;2.00;;;1.80;;
4634;SDS011;2330;48.158;11.816;2024-01-30T11:21:54;3.13;;;1.70;;
4634;SDS011;2330;48.158;11.816;2024-01-30T11:24:23;3.07;;;2.23;;
4634;SDS011;2330;48.158;11.816;2024-01-30T11:26:57;3.53;;;1.60;;
4634;SDS011;2330;48.158;11.816;2024-01-30T11:29:26;4.93;;;1.87;;
4634;SDS011;2330;48.158;11.816;2024-01-30T11:31:55;2.07;;;1.80;;
4634;SDS011;2330;48.158;11.816;2024-01-30T11:34:22;6.60;;;1.97;;
4634;SDS011;2330;48.158;11.816;2024-01-30T11:36:57;2.80;;;1.90;;
4634;SDS011;2330;48.158;11.816;2024-01-30T11:39:26;6.93;;;3.33;;
4634;SDS011;2330;48.158;11.816;2024-01-30T11:41:53;1.80;;;1.70;;
4634;SDS011;2330;48.158;11.816;2024-01-30T11:44:20;4.73;;;1.90;;
4634;SDS011;2330;48.158;11.816;2024-01-30T11:46:51;4.37;;;2.20;;
4634;SDS011;2330;48.158;11.816;2024-01-30T11:49:19;3.23;;;1.90;;
4634;SDS011;2330;48.158;11.816;2024-01-30T11:51:46;3.20;;;2.33;;
4634;SDS011;2330;48.158;11.816;2024-01-30T11:54:15;4.93;;;2.93;;
4634;SDS011;2330;48.158;11.816;2024-01-30T11:56:42;4.43;;;2.70;;
4634;SDS011;2330;48.158;11.816;2024-01-30T11:59:10;2.67;;;1.93;;
4634;SDS011;2330;48.158;11.816;2024-01-30T12:01:37;5.17;;;2.07;;
4634;SDS011;2330;48.158;11.816;2024-01-30T12:04:04;4.60;;;2.23;;
4634;SDS011;2330;48.158;11.816;2024-01-30T12:06:36;4.30;;;1.73;;
4634;SDS011;2330;48.158;11.816;2024-01-30T12:09:03;2.13;;;1.80;;
4634;SDS011;2330;48.158;11.816;2024-01-30T12:11:45;3.60;;;1.97;;
4634;SDS011;2330;48.158;11.816;2024-01-30T12:14:13;7.73;;;2.03;;
4634;SDS011;2330;48.158;11.816;2024-01-30T12:16:41;3.27;;;1.93;;
4634;SDS011;2330;48.158;11.816;2024-01-30T12:19:08;8.77;;;1.90;;
4634;SDS011;2330;48.158;11.816;2024-01-30T12:21:35;3.40;;;2.00;;
4634;SDS011;2330;48.158;11.816;2024-01-30T12:24:02;5.77;;;2.10;;
4634;SDS011;2330;48.158;11.816;2024-01-30T12:26:29;2.00;;;1.40;;
4634;SDS011;2330;48.158;11.816;2024-01-30T12:28:56;5.90;;;2.13;;
4634;SDS011;2330;48.158;11.816;2024-01-30T12:31:28;2.33;;;1.50;;
4634;SDS011;2330;48.158;11.816;2024-01-30T12:33:55;4.23;;;2.40;;
4634;SDS011;2330;48.158;11.816;2024-01-30T12:36:24;2.57;;;2.13;;
4634;SDS011;2330;48.158;11.816;2024-01-30T12:38:52;3.40;;;2.73;;
4634;SDS011;2330;48.158;11.816;2024-01-30T12:41:19;4.53;;;2.10;;
4634;SDS011;2330;48.158;11.816;2024-01-30T12:43:46;2.70;;;2.20;;
4634;SDS011;2330;48.158;11.816;2024-01-30T12:46:16;7.70;;;2.10;;
4634;SDS011;2330;48.158;11.816;2024-01-30T12:48:43;3.40;;;2.30;;
4634;SDS011;2330;48.158;11.816;2024-01-30T12:51:10;7.10;;;2.47;;
4634;SDS011;2330;48.158;11.816;2024-01-30T12:53:37;2.73;;;2.27;;
4634;SDS011;2330;48.158;11.816;2024-01-30T12:56:04;4.70;;;2.23;;
4634;SDS011;2330;48.158;11.816;2024-01-30T12:58:31;11.37;;;2.87;;
4634;SDS011;2330;48.158;11.816;2024-01-30T13:00:58;8.43;;;2.83;;
4634;SDS011;2330;48.158;11.816;2024-01-30T13:03:25;2.67;;;2.17;;
4634;SDS011;2330;48.158;11.816;2024-01-30T13:05:52;4.47;;;2.33;;
4634;SDS011;2330;48.158;11.816;2024-01-30T13:08:19;3.10;;;2.23;;
4634;SDS011;2330;48.158;11.816;2024-01-30T13:10:46;11.67;;;2.90;;
4634;SDS011;2330;48.158;11.816;2024-01-30T13:13:16;4.23;;;2.40;;
4634;SDS011;2330;48.158;11.816;2024-01-30T13:15:46;9.27;;;3.17;;
4634;SDS011;2330;48.158;11.816;2024-01-30T13:18:14;6.20;;;2.57;;
4634;SDS011;2330;48.158;11.816;2024-01-30T13:20:41;3.80;;;2.50;;
4634;SDS011;2330;48.158;11.816;2024-01-30T13:23:08;9.10;;;2.70;;
4634;SDS011;2330;48.158;11.816;2024-01-30T13:25:37;4.20;;;2.37;;
4634;SDS011;2330;48.158;11.816;2024-01-30T13:28:04;3.23;;;2.40;;
4634;SDS011;2330;48.158;11.816;2024-01-30T13:30:31;5.90;;;3.03;;
4634;SDS011;2330;48.158;11.816;2024-01-30T13:32:58;7.00;;;2.47;;
4634;SDS011;2330;48.158;11.816;2024-01-30T13:35:25;7.30;;;2.83;;
4634;SDS011;2330;48.158;11.816;2024-01-30T13:37:53;4.50;;;2.30;;
4634;SDS011;2330;48.158;11.816;2024-01-30T13:40:20;5.43;;;2.47;;
4634;SDS011;2330;48.158;11.816;2024-01-30T13:42:48;3.50;;;2.30;;
4634;SDS011;2330;48.158;11.816;2024-01-30T13:45:15;3.20;;;2.50;;
4634;SDS011;2330;48.158;11.816;2024-01-30T13:47:42;2.37;;;2.00;;
4634;SDS011;2330;48.158;11.816;2024-01-30T13:50:09;5.50;;;2.63;;
4634;SDS011;2330;48.158;11.816;2024-01-30T13:52:41;4.43;;;2.73;;
4634;SDS011;2330;48.158;11.816;2024-01-30T13:55:11;7.40;;;2.10;;
4634;SDS011;2330;48.158;11.816;2024-01-30T13:57:39;3.17;;;2.30;;
4634;SDS011;2330;48.158;11.816;2024-01-30T14:00:06;7.40;;;1.97;;
4634;SDS011;2330;48.158;11.816;2024-01-30T14:02:34;11.47;;;2.40;;
4634;SDS011;2330;48.158;11.816;2024-01-30T14:05:02;5.73;;;2.10;;
4634;SDS011;2330;48.158;11.816;2024-01-30T14:07:31;4.43;;;2.80;;
4634;SDS011;2330;48.158;11.816;2024-01-30T14:09:59;3.80;;;2.20;;
4634;SDS011;2330;48.158;11.816;2024-01-30T14:12:26;2.43;;;2.20;;
4634;SDS011;2330;48.158;11.816;2024-01-30T14:14:53;3.30;;;2.30;;
4634;SDS011;2330;48.158;11.816;2024-01-30T14:17:19;2.73;;;2.03;;
4634;SDS011;2330;48.158;11.816;2024-01-30T14:19:46;5.17;;;2.30;;
4634;SDS011;2330;48.158;11.816;2024-01-30T14:22:13;3.50;;;2.07;;
4634;SDS011;2330;48.158;11.816;2024-01-30T14:24:40;6.10;;;2.37;;
4634;SDS011;2330;48.158;11.816;2024-01-30T14:27:07;3.70;;;2.50;;
4634;SDS011;2330;48.158;11.816;2024-01-30T14:29:34;7.37;;;2.13;;
4634;SDS011;2330;48.158;11.816;2024-01-30T14:32:01;3.70;;;2.43;;
4634;SDS011;2330;48.158;11.816;2024-01-30T14:34:30;6.37;;;2.97;;
4634;SDS011;2330;48.158;11.816;2024-01-30T14:36:57;4.60;;;3.23;;
4634;SDS011;2330;48.158;11.816;2024-01-30T14:39:24;10.77;;;3.90;;
4634;SDS011;2330;48.158;11.816;2024-01-30T14:41:51;5.70;;;4.03;;
4634;SDS011;2330;48.158;11.816;2024-01-30T14:44:18;8.53;;;4.63;;
4634;SDS011;2330;48.158;11.816;2024-01-30T14:46:45;4.73;;;3.40;;
4634;SDS011;2330;48.158;11.816;2024-01-30T14:49:11;9.83;;;4.30;;
4634;SDS011;2330;48.158;11.816;2024-01-30T14:51:38;4.50;;;4.07;;
4634;SDS011;2330;48.158;11.816;2024-01-30T14:54:05;6.20;;;4.50;;
4634;SDS011;2330;48.158;11.816;2024-01-30T14:56:32;9.00;;;4.30;;
4634;SDS011;2330;48.158;11.816;2024-01-30T14:58:59;5.03;;;3.60;;
4634;SDS011;2330;48.158;11.816;2024-01-30T15:01:27;9.40;;;4.50;;